Metar z pełnej godziny Komunikat METAR ze strony awiacja.imgw.pl Metar G00 EPZG METAR EPZG 200400Z 23009KT CAVOK 05/04 Q1017 =